createdAt,value
2018-10-06T00:02:05.447Z,12.43
2018-10-06T00:04:34.364Z,13.25
2018-10-06T00:07:03.295Z,12.75
2018-10-06T00:09:32.252Z,18.05
2018-10-06T00:12:01.140Z,13.45
2018-10-06T00:14:30.104Z,13.40
2018-10-06T00:16:59.023Z,16.00
2018-10-06T00:19:27.990Z,12.95
2018-10-06T00:21:56.916Z,11.43
2018-10-06T00:24:25.812Z,12.07
2018-10-06T00:26:55.438Z,12.58
2018-10-06T00:29:24.361Z,12.80
2018-10-06T00:31:53.261Z,13.18
2018-10-06T00:34:22.355Z,14.18
2018-10-06T00:36:51.249Z,13.78
2018-10-06T00:39:20.217Z,16.20
2018-10-06T00:41:49.296Z,12.58
2018-10-06T00:44:18.207Z,16.65
2018-10-06T00:46:47.539Z,12.15
2018-10-06T00:49:16.457Z,12.15
2018-10-06T00:51:45.389Z,16.00
2018-10-06T00:54:14.309Z,13.80
2018-10-06T00:56:43.258Z,12.40
2018-10-06T00:59:12.191Z,12.05
2018-10-06T01:01:41.085Z,13.22
2018-10-06T01:04:10.122Z,15.58
2018-10-06T01:06:39.047Z,16.10
2018-10-06T01:09:09.083Z,14.87
2018-10-06T01:11:38.022Z,13.48
2018-10-06T01:14:06.916Z,14.87
2018-10-06T01:16:36.114Z,15.05
2018-10-06T01:19:05.629Z,12.82
2018-10-06T01:21:34.579Z,13.58
2018-10-06T01:24:03.519Z,12.85
2018-10-06T01:26:32.400Z,13.45
2018-10-06T01:29:01.347Z,13.38
2018-10-06T01:31:30.249Z,14.75
2018-10-06T01:33:59.159Z,13.35
2018-10-06T01:36:28.077Z,11.88
2018-10-06T01:38:57.006Z,12.40
2018-10-06T01:41:25.948Z,12.25
2018-10-06T01:43:54.877Z,11.95
2018-10-06T01:46:23.798Z,13.38
2018-10-06T01:48:52.723Z,14.35
2018-10-06T01:51:21.608Z,12.10
2018-10-06T01:53:50.532Z,12.40
2018-10-06T01:56:19.445Z,12.50
2018-10-06T01:58:48.347Z,13.05
2018-10-06T02:01:17.261Z,13.00
2018-10-06T02:03:46.194Z,12.53
2018-10-06T02:06:15.121Z,11.97
2018-10-06T02:08:44.019Z,15.08
2018-10-06T02:11:13.133Z,13.05
2018-10-06T02:13:42.042Z,8.40
2018-10-06T02:16:10.989Z,11.40
2018-10-06T02:18:39.890Z,11.88
2018-10-06T02:21:08.859Z,10.48
2018-10-06T02:23:37.782Z,10.43
2018-10-06T02:26:06.900Z,11.43
2018-10-06T02:28:35.797Z,9.65
2018-10-06T02:31:04.694Z,9.55
2018-10-06T02:33:33.610Z,13.10
2018-10-06T02:36:02.580Z,13.08
2018-10-06T02:38:31.494Z,13.22
2018-10-06T02:41:00.399Z,11.68
2018-10-06T02:43:29.297Z,13.72
2018-10-06T02:45:58.665Z,11.95
2018-10-06T02:48:27.655Z,13.08
2018-10-06T02:50:56.583Z,10.48
2018-10-06T02:53:25.490Z,13.10
2018-10-06T02:55:54.426Z,10.80
2018-10-06T02:58:23.334Z,11.95
2018-10-06T03:00:52.290Z,12.63
2018-10-06T03:03:21.242Z,11.97
2018-10-06T03:05:50.161Z,10.45
2018-10-06T03:08:19.072Z,8.80
2018-10-06T03:10:47.977Z,9.73
2018-10-06T03:13:16.881Z,10.98
2018-10-06T03:15:45.813Z,10.85
2018-10-06T03:18:14.753Z,10.55
2018-10-06T03:20:43.649Z,14.55
2018-10-06T03:23:12.562Z,9.83
2018-10-06T03:25:41.481Z,11.60
2018-10-06T03:28:10.401Z,11.55
2018-10-06T03:30:39.334Z,11.10
2018-10-06T03:33:08.234Z,12.70
2018-10-06T03:35:37.159Z,11.35
2018-10-06T03:38:06.120Z,12.90
2018-10-06T03:40:35.047Z,10.40
2018-10-06T03:43:03.947Z,11.00
2018-10-06T03:45:32.880Z,13.30
2018-10-06T03:48:01.807Z,10.32
2018-10-06T03:50:30.701Z,12.35
2018-10-06T03:52:59.629Z,12.68
2018-10-06T03:55:28.533Z,11.78
2018-10-06T03:57:57.511Z,11.63
2018-10-06T04:00:26.463Z,10.82
2018-10-06T04:02:55.377Z,15.63
2018-10-06T04:05:24.296Z,12.23
2018-10-06T04:07:53.241Z,12.13
2018-10-06T04:10:22.152Z,12.75
2018-10-06T04:12:51.084Z,13.88
2018-10-06T04:15:20.034Z,10.70
2018-10-06T04:17:48.966Z,13.65
2018-10-06T04:20:17.864Z,11.73
2018-10-06T04:22:46.814Z,11.57
2018-10-06T04:25:15.724Z,11.35
2018-10-06T04:27:44.625Z,9.05
2018-10-06T04:30:13.576Z,10.70
2018-10-06T04:32:42.474Z,9.00
2018-10-06T04:35:11.391Z,16.05
2018-10-06T04:37:40.321Z,12.30
2018-10-06T04:40:09.248Z,11.50
2018-10-06T04:42:38.166Z,11.70
2018-10-06T04:45:07.410Z,11.68
2018-10-06T04:47:36.308Z,13.62
2018-10-06T04:50:05.354Z,8.90
2018-10-06T04:52:34.291Z,11.90
2018-10-06T04:55:03.256Z,10.85
2018-10-06T04:57:32.161Z,13.05
2018-10-06T05:00:01.075Z,15.55
2018-10-06T05:02:29.998Z,10.43
2018-10-06T05:04:58.895Z,14.43
2018-10-06T05:07:27.789Z,9.28
2018-10-06T05:09:56.773Z,12.58
2018-10-06T05:12:25.664Z,14.93
2018-10-06T05:14:54.587Z,11.85
2018-10-06T05:17:23.517Z,11.12
2018-10-06T05:19:52.413Z,11.90
2018-10-06T05:22:21.335Z,11.15
2018-10-06T05:24:50.247Z,12.33
2018-10-06T05:27:19.169Z,13.68
2018-10-06T05:29:48.089Z,11.65
2018-10-06T05:32:16.997Z,9.40
2018-10-06T05:34:46.027Z,10.28
2018-10-06T05:37:14.919Z,10.72
2018-10-06T05:39:43.841Z,11.18
2018-10-06T05:42:12.767Z,11.83
2018-10-06T05:44:41.709Z,13.85
2018-10-06T05:47:10.674Z,14.60
2018-10-06T05:49:39.582Z,12.40
2018-10-06T05:52:08.513Z,12.68
2018-10-06T05:54:37.461Z,13.00
2018-10-06T05:57:06.719Z,11.83
2018-10-06T05:59:35.657Z,10.43
2018-10-06T06:02:04.680Z,13.45
2018-10-06T06:04:33.615Z,10.20
2018-10-06T06:07:02.583Z,11.18
2018-10-06T06:09:31.541Z,12.95
2018-10-06T06:12:00.464Z,12.07
2018-10-06T06:14:29.426Z,13.32
2018-10-06T06:16:58.314Z,14.03
2018-10-06T06:19:27.226Z,12.45
2018-10-06T06:21:56.133Z,12.75
2018-10-06T06:24:25.080Z,15.00
2018-10-06T06:26:54.684Z,15.00
2018-10-06T06:29:23.594Z,11.65
2018-10-06T06:31:52.472Z,14.28
2018-10-06T06:34:21.460Z,14.25
2018-10-06T06:36:50.352Z,12.30
2018-10-06T06:39:19.324Z,14.13
2018-10-06T06:41:48.222Z,14.78
2018-10-06T06:44:17.252Z,12.20
2018-10-06T06:46:46.306Z,14.20
2018-10-06T06:49:15.231Z,14.55
2018-10-06T06:51:44.134Z,15.45
2018-10-06T06:54:13.118Z,14.25
2018-10-06T06:56:42.106Z,11.88
2018-10-06T06:59:11.130Z,15.63
2018-10-06T07:01:40.062Z,13.90
2018-10-06T07:04:09.021Z,15.03
2018-10-06T07:06:38.041Z,17.70
2018-10-06T07:09:07.896Z,12.78
2018-10-06T07:11:36.863Z,15.55
2018-10-06T07:14:06.155Z,11.85
2018-10-06T07:16:35.092Z,13.32
2018-10-06T07:19:04.049Z,13.72
2018-10-06T07:21:32.979Z,16.50
2018-10-06T07:24:01.961Z,13.38
2018-10-06T07:26:30.893Z,21.62
2018-10-06T07:28:59.838Z,17.35
2018-10-06T07:31:28.764Z,17.50
2018-10-06T07:33:57.687Z,12.82
2018-10-06T07:36:26.626Z,12.82
2018-10-06T07:38:55.521Z,15.20
2018-10-06T07:41:24.456Z,13.60
2018-10-06T07:43:53.554Z,11.78
2018-10-06T07:46:22.702Z,13.25
2018-10-06T07:48:51.752Z,12.93
2018-10-06T07:51:20.702Z,12.58
2018-10-06T07:53:49.618Z,15.13
2018-10-06T07:56:18.592Z,16.70
2018-10-06T07:58:47.544Z,12.88
2018-10-06T08:01:16.672Z,13.45
2018-10-06T08:03:45.616Z,15.35
2018-10-06T08:06:14.946Z,13.03
2018-10-06T08:08:44.058Z,12.15
2018-10-06T08:11:13.075Z,18.95
2018-10-06T08:13:42.005Z,14.55
2018-10-06T08:16:10.940Z,12.63
2018-10-06T08:18:40.022Z,17.85
2018-10-06T08:21:09.007Z,15.40
2018-10-06T08:23:37.961Z,13.00
2018-10-06T08:26:07.046Z,12.85
2018-10-06T08:28:35.990Z,13.85
2018-10-06T08:31:04.930Z,14.47
2018-10-06T08:33:33.861Z,13.53
2018-10-06T08:36:02.831Z,12.80
2018-10-06T08:38:31.774Z,14.93
2018-10-06T08:41:00.742Z,13.43
2018-10-06T08:43:29.684Z,13.68
2018-10-06T08:45:58.629Z,14.65
2018-10-06T08:48:27.560Z,13.13
2018-10-06T08:50:56.476Z,12.90
2018-10-06T08:53:25.418Z,15.85
2018-10-06T08:55:54.408Z,12.45
2018-10-06T08:58:23.601Z,11.45
2018-10-06T09:00:52.532Z,18.48
2018-10-06T09:03:21.494Z,14.70
2018-10-06T09:05:50.451Z,13.70
2018-10-06T09:08:19.367Z,14.73
2018-10-06T09:10:48.309Z,16.65
2018-10-06T09:13:17.436Z,14.90
2018-10-06T09:15:46.361Z,14.10
2018-10-06T09:18:15.317Z,17.95
2018-10-06T09:20:44.271Z,11.22
2018-10-06T09:23:13.250Z,15.72
2018-10-06T09:25:42.194Z,12.85
2018-10-06T09:28:11.302Z,16.32
2018-10-06T09:30:40.432Z,13.08
2018-10-06T09:33:09.522Z,13.05
2018-10-06T09:35:38.577Z,16.20
2018-10-06T09:38:07.538Z,15.30
2018-10-06T09:40:36.533Z,14.25
2018-10-06T09:43:05.510Z,13.88
2018-10-06T09:45:34.499Z,16.37
2018-10-06T09:48:03.523Z,17.27
2018-10-06T09:50:32.669Z,16.05
2018-10-06T09:53:01.651Z,12.33
2018-10-06T09:55:30.682Z,16.55
2018-10-06T09:57:59.645Z,15.78
2018-10-06T10:00:33.825Z,14.98
2018-10-06T10:03:07.889Z,15.13
2018-10-06T10:05:42.191Z,15.03
2018-10-06T10:08:11.384Z,13.95
2018-10-06T10:10:40.518Z,15.00
2018-10-06T10:13:09.826Z,15.58
2018-10-06T10:15:38.782Z,15.53
2018-10-06T10:18:07.806Z,13.25
2018-10-06T10:20:36.864Z,13.90
2018-10-06T10:23:06.058Z,14.70
2018-10-06T10:25:35.218Z,13.22
2018-10-06T10:28:04.706Z,15.00
2018-10-06T10:30:33.680Z,11.65
2018-10-06T10:33:02.612Z,12.70
2018-10-06T10:35:31.585Z,15.72
2018-10-06T10:38:00.513Z,11.50
2018-10-06T10:40:29.451Z,11.57
2018-10-06T10:42:58.410Z,12.73
2018-10-06T10:45:27.352Z,13.35
2018-10-06T10:47:56.294Z,10.72
2018-10-06T10:50:25.259Z,10.48
2018-10-06T10:52:54.247Z,11.03
2018-10-06T10:55:23.218Z,11.40
2018-10-06T10:57:52.382Z,10.63
2018-10-06T11:00:21.486Z,9.58
2018-10-06T11:02:50.653Z,11.33
2018-10-06T11:05:19.631Z,12.20
2018-10-06T11:07:48.545Z,12.15
2018-10-06T11:10:17.541Z,14.68
2018-10-06T11:12:46.454Z,9.28
2018-10-06T11:15:15.407Z,11.95
2018-10-06T11:17:44.373Z,10.50
2018-10-06T11:20:13.401Z,11.28
2018-10-06T11:22:42.306Z,9.48
2018-10-06T11:25:11.269Z,9.98
2018-10-06T11:27:40.275Z,8.20
2018-10-06T11:30:09.603Z,9.58
2018-10-06T11:32:38.534Z,10.45
2018-10-06T11:35:07.831Z,10.13
2018-10-06T11:37:36.819Z,7.67
2018-10-06T11:40:06.099Z,10.58
2018-10-06T11:42:35.035Z,11.05
2018-10-06T11:45:04.017Z,8.13
2018-10-06T11:47:32.666Z,7.77
2018-10-06T11:50:01.607Z,6.83
2018-10-06T11:52:30.662Z,10.63
2018-10-06T11:54:59.574Z,8.18
2018-10-06T11:57:28.505Z,8.70
2018-10-06T11:59:57.272Z,6.17
2018-10-06T12:02:26.063Z,8.83
2018-10-06T12:04:54.737Z,8.07
2018-10-06T12:07:23.868Z,10.98
2018-10-06T12:09:52.923Z,10.75
2018-10-06T12:12:21.542Z,7.43
2018-10-06T12:14:50.270Z,8.37
2018-10-06T12:17:18.926Z,6.33
2018-10-06T12:19:47.578Z,9.77
2018-10-06T12:22:16.211Z,5.37
2018-10-06T12:24:44.920Z,5.57
2018-10-06T12:27:13.548Z,7.87
2018-10-06T12:29:42.497Z,10.48
2018-10-06T12:32:11.146Z,9.43
2018-10-06T12:34:39.838Z,7.30
2018-10-06T12:37:08.596Z,8.40
2018-10-06T12:42:12.111Z,9.23
2018-10-06T12:44:40.906Z,7.40
2018-10-06T12:47:09.717Z,6.90
2018-10-06T12:49:38.521Z,9.77
2018-10-06T12:52:07.477Z,6.73
2018-10-06T12:54:36.129Z,7.90
2018-10-06T12:57:05.383Z,8.47
2018-10-06T12:59:34.063Z,6.73
2018-10-06T13:02:02.736Z,7.30
2018-10-06T13:04:31.496Z,10.03
2018-10-06T13:07:00.634Z,10.03
2018-10-06T13:09:29.236Z,7.47
2018-10-06T13:11:57.961Z,32.17
2018-10-06T13:14:26.769Z,12.23
2018-10-06T13:16:55.426Z,11.03
2018-10-06T13:19:24.108Z,6.20
2018-10-06T13:21:52.951Z,6.83
2018-10-06T13:24:21.633Z,7.50
2018-10-06T13:26:50.283Z,7.93
2018-10-06T13:29:18.952Z,11.40
2018-10-06T13:31:47.749Z,7.93
2018-10-06T13:34:16.545Z,11.87
2018-10-06T13:36:45.229Z,6.67
2018-10-06T13:39:13.884Z,5.80
2018-10-06T13:41:42.500Z,5.17
2018-10-06T13:44:11.513Z,5.80
2018-10-06T13:46:40.183Z,7.33
2018-10-06T13:49:09.007Z,6.73
2018-10-06T13:51:37.677Z,5.60
2018-10-06T13:54:06.349Z,5.53
2018-10-06T13:56:35.526Z,5.77
2018-10-06T13:59:04.308Z,7.37
2018-10-06T14:01:33.004Z,5.17
2018-10-06T14:04:01.684Z,10.67
2018-10-06T14:06:30.318Z,5.87
2018-10-06T14:08:58.992Z,7.93
2018-10-06T14:11:27.615Z,6.17
2018-10-06T14:13:56.266Z,6.23
2018-10-06T14:16:24.949Z,7.73
2018-10-06T14:18:53.906Z,6.10
2018-10-06T14:21:22.621Z,5.97
2018-10-06T14:23:51.291Z,4.27
2018-10-06T14:26:19.933Z,4.57
2018-10-06T14:28:48.749Z,7.57
2018-10-06T14:31:17.393Z,6.10
2018-10-06T14:33:46.024Z,4.97
2018-10-06T14:36:14.704Z,4.97
2018-10-06T14:38:43.316Z,5.47
2018-10-06T14:41:11.994Z,5.70
2018-10-06T14:43:40.624Z,4.33
2018-10-06T14:46:09.234Z,5.30
2018-10-06T14:48:37.857Z,4.77
2018-10-06T14:51:06.537Z,4.57
2018-10-06T14:53:35.160Z,7.03
2018-10-06T14:56:03.845Z,6.90
2018-10-06T14:58:32.494Z,7.77
2018-10-06T15:01:01.117Z,5.73
2018-10-06T15:03:29.725Z,4.57
2018-10-06T15:05:58.545Z,5.77
2018-10-06T15:08:27.168Z,7.70
2018-10-06T15:10:55.840Z,6.63
2018-10-06T15:13:31.174Z,4.57
2018-10-06T15:15:59.918Z,4.50
2018-10-06T15:18:28.729Z,4.90
2018-10-06T15:20:57.384Z,5.37
2018-10-06T15:23:26.001Z,5.60
2018-10-06T15:25:54.721Z,4.67
2018-10-06T15:28:23.409Z,11.07
2018-10-06T15:30:52.055Z,6.87
2018-10-06T15:33:20.688Z,5.77
2018-10-06T15:35:49.340Z,7.40
2018-10-06T15:38:18.065Z,11.03
2018-10-06T15:40:46.908Z,11.67
2018-10-06T15:43:15.547Z,8.20
2018-10-06T15:45:44.228Z,10.20
2018-10-06T15:48:12.890Z,7.23
2018-10-06T15:50:41.535Z,7.47
2018-10-06T15:53:10.162Z,9.30
2018-10-06T15:55:38.825Z,8.37
2018-10-06T15:58:07.534Z,8.83
2018-10-06T16:00:36.190Z,13.03
2018-10-06T16:03:05.141Z,9.85
2018-10-06T16:05:34.105Z,10.60
2018-10-06T16:08:03.078Z,16.05
2018-10-06T16:10:32.054Z,13.78
2018-10-06T16:13:00.698Z,8.03
2018-10-06T16:15:29.650Z,11.25
2018-10-06T16:17:58.788Z,10.48
2018-10-06T16:20:27.709Z,10.88
2018-10-06T16:22:56.678Z,14.85
2018-10-06T16:25:27.355Z,12.73
2018-10-06T16:27:56.369Z,14.00
2018-10-06T16:30:25.340Z,15.43
2018-10-06T16:32:54.363Z,18.73
2018-10-06T16:35:23.335Z,11.95
2018-10-06T16:37:52.225Z,19.20
2018-10-06T16:40:21.209Z,15.98
2018-10-06T16:42:50.173Z,11.33
2018-10-06T16:45:19.116Z,14.75
2018-10-06T16:47:48.142Z,13.43
2018-10-06T16:50:17.075Z,13.40
2018-10-06T16:52:46.006Z,24.65
2018-10-06T16:55:14.984Z,21.05
2018-10-06T16:57:43.938Z,13.32
2018-10-06T17:00:13.059Z,13.55
2018-10-06T17:02:42.176Z,20.40
2018-10-06T17:05:11.156Z,21.12
2018-10-06T17:07:40.149Z,18.57
2018-10-06T17:10:09.276Z,14.58
2018-10-06T17:12:38.492Z,16.87
2018-10-06T17:15:07.982Z,15.63
2018-10-06T17:17:38.066Z,17.17
2018-10-06T17:20:07.082Z,13.62
2018-10-06T17:22:36.027Z,14.63
2018-10-06T17:25:05.077Z,11.85
2018-10-06T17:27:34.236Z,18.80
2018-10-06T17:30:03.179Z,32.45
2018-10-06T17:32:32.142Z,13.55
2018-10-06T17:35:01.145Z,11.83
2018-10-06T17:37:30.150Z,14.98
2018-10-06T17:39:59.188Z,18.42
2018-10-06T17:42:28.134Z,13.93
2018-10-06T17:44:57.116Z,18.32
2018-10-06T17:47:26.075Z,17.50
2018-10-06T17:49:55.104Z,14.33
2018-10-06T17:52:24.559Z,15.93
2018-10-06T17:54:53.519Z,14.60
2018-10-06T17:57:22.580Z,12.88
2018-10-06T17:59:51.673Z,13.58
2018-10-06T18:02:20.621Z,15.53
2018-10-06T18:04:49.696Z,11.73
2018-10-06T18:07:18.829Z,12.13
2018-10-06T18:09:47.797Z,14.30
2018-10-06T18:12:16.785Z,10.98
2018-10-06T18:14:45.741Z,11.08
2018-10-06T18:17:14.693Z,13.68
2018-10-06T18:19:43.671Z,14.18
2018-10-06T18:22:12.652Z,13.45
2018-10-06T18:24:41.595Z,10.82
2018-10-06T18:27:10.608Z,15.30
2018-10-06T18:29:39.779Z,12.50
2018-10-06T18:32:08.926Z,13.60
2018-10-06T18:34:37.898Z,14.87
2018-10-06T18:37:06.969Z,13.68
2018-10-06T18:39:35.993Z,15.00
2018-10-06T18:42:05.002Z,14.50
2018-10-06T18:44:33.953Z,13.08
2018-10-06T18:47:02.934Z,12.23
2018-10-06T18:49:31.925Z,48.87
2018-10-06T18:52:00.958Z,28.17
2018-10-06T18:54:29.946Z,18.48
2018-10-06T18:56:58.925Z,13.43
2018-10-06T18:59:28.191Z,15.15
2018-10-06T19:01:57.521Z,20.17
2018-10-06T19:04:26.797Z,18.17
2018-10-06T19:06:56.148Z,27.82
2018-10-06T19:09:25.409Z,16.15
2018-10-06T19:11:54.699Z,18.52
2018-10-06T19:14:23.944Z,20.27
2018-10-06T19:16:53.267Z,21.90
2018-10-06T19:19:22.522Z,17.62
2018-10-06T19:21:51.763Z,23.77
2018-10-06T19:24:21.158Z,18.05
2018-10-06T19:26:50.620Z,18.80
2018-10-06T19:29:19.976Z,16.55
2018-10-06T19:31:49.309Z,18.42
2018-10-06T19:34:18.576Z,29.27
2018-10-06T19:36:47.916Z,18.92
2018-10-06T19:39:17.242Z,16.55
2018-10-06T19:41:46.587Z,19.67
2018-10-06T19:44:15.926Z,13.22
2018-10-06T19:46:45.162Z,14.63
2018-10-06T19:49:14.440Z,14.07
2018-10-06T19:51:43.801Z,12.40
2018-10-06T19:54:13.339Z,14.87
2018-10-06T19:56:42.567Z,16.70
2018-10-06T19:59:11.790Z,14.03
2018-10-06T20:01:41.079Z,12.93
2018-10-06T20:04:10.408Z,11.00
2018-10-06T20:06:39.944Z,13.65
2018-10-06T20:09:10.541Z,8.60
2018-10-06T20:11:40.104Z,10.93
2018-10-06T20:14:09.363Z,9.60
2018-10-06T20:16:38.714Z,9.15
2018-10-06T20:19:08.033Z,8.15
2018-10-06T20:21:37.519Z,7.22
2018-10-06T20:24:13.141Z,7.12
2018-10-06T20:26:42.161Z,11.88
2018-10-06T20:29:11.227Z,9.48
2018-10-06T20:31:40.205Z,6.83
2018-10-06T20:34:09.221Z,6.22
2018-10-06T20:36:38.203Z,10.10
2018-10-06T20:39:07.595Z,8.08
2018-10-06T20:41:36.504Z,6.55
2018-10-06T20:44:05.818Z,6.33
2018-10-06T20:46:34.921Z,7.97
2018-10-06T20:49:03.869Z,7.33
2018-10-06T20:51:32.842Z,8.25
2018-10-06T20:54:01.797Z,6.78
2018-10-06T20:56:30.757Z,6.90
2018-10-06T20:58:59.788Z,6.45
2018-10-06T21:01:28.711Z,8.00
2018-10-06T21:03:57.653Z,7.85
2018-10-06T21:06:26.599Z,6.80
2018-10-06T21:08:55.520Z,7.80
2018-10-06T21:11:24.544Z,9.05
2018-10-06T21:13:53.676Z,6.95
2018-10-06T21:16:22.664Z,7.08
2018-10-06T21:18:51.606Z,9.20
2018-10-06T21:21:20.652Z,6.42
2018-10-06T21:23:49.576Z,7.72
2018-10-06T21:26:18.543Z,8.35
2018-10-06T21:28:47.566Z,6.92
2018-10-06T21:31:16.676Z,9.20
2018-10-06T21:33:45.777Z,7.20
2018-10-06T21:36:14.748Z,7.55
2018-10-06T21:38:43.759Z,7.78
2018-10-06T21:41:12.874Z,10.63
2018-10-06T21:43:41.993Z,7.97
2018-10-06T21:46:10.947Z,10.08
2018-10-06T21:48:39.922Z,8.00
2018-10-06T21:51:08.863Z,8.70
2018-10-06T21:53:37.838Z,11.85
2018-10-06T21:56:06.801Z,8.28
2018-10-06T21:58:35.803Z,10.58
2018-10-06T22:01:14.591Z,7.58
2018-10-06T22:03:43.531Z,10.25
2018-10-06T22:06:12.485Z,9.88
2018-10-06T22:08:41.545Z,8.98
2018-10-06T22:11:10.645Z,8.33
2018-10-06T22:13:39.645Z,7.72
2018-10-06T22:16:08.659Z,10.63
2018-10-06T22:18:37.571Z,7.42
2018-10-06T22:21:06.575Z,9.33
2018-10-06T22:23:35.538Z,8.40
2018-10-06T22:26:04.617Z,8.78
2018-10-06T22:28:33.586Z,9.03
2018-10-06T22:31:02.564Z,8.70
2018-10-06T22:33:31.500Z,10.05
2018-10-06T22:36:00.426Z,9.35
2018-10-06T22:38:29.368Z,10.40
2018-10-06T22:40:58.328Z,10.93
2018-10-06T22:43:27.326Z,9.78
2018-10-06T22:45:56.455Z,10.32
2018-10-06T22:48:25.486Z,8.98
2018-10-06T22:50:54.462Z,8.78
2018-10-06T22:53:23.373Z,8.83
2018-10-06T22:55:52.314Z,9.23
2018-10-06T22:58:21.259Z,10.18
2018-10-06T23:00:50.566Z,10.95
2018-10-06T23:03:19.591Z,9.10
2018-10-06T23:05:48.682Z,9.28
2018-10-06T23:08:17.605Z,8.95
2018-10-06T23:10:46.577Z,9.15
2018-10-06T23:13:15.482Z,9.33
2018-10-06T23:15:44.418Z,10.28
2018-10-06T23:18:13.382Z,10.48
2018-10-06T23:20:42.359Z,8.20
2018-10-06T23:23:11.299Z,8.83
2018-10-06T23:25:40.262Z,11.03
2018-10-06T23:28:09.217Z,10.40
2018-10-06T23:30:38.190Z,8.08
2018-10-06T23:33:07.167Z,8.75
2018-10-06T23:35:36.085Z,9.80
2018-10-06T23:38:05.025Z,9.08
2018-10-06T23:40:33.948Z,10.53
2018-10-06T23:43:02.891Z,9.93
2018-10-06T23:45:31.930Z,9.18
2018-10-06T23:48:00.859Z,9.13
2018-10-06T23:50:29.859Z,9.80
2018-10-06T23:52:58.812Z,12.25
2018-10-06T23:55:27.793Z,11.30
2018-10-06T23:57:56.753Z,10.18
